KABR/ABR METAR and TAF weather

Enter ICAO airport designator
Station Type Date Time Source
KABR METAR 2019/02/21 11:53 UTC NOAA

KABR 211153Z AUTO 33008KT 10SM OVC035 M13/M16 A3000 RMK AO2 SLP186 70014 T11331161 11133 21183 53026 $


Station Type Date Time Source
KABR Decoded METAR 2019/02/21 11:53 UTC NOAA

ABERDEEN REGIONAL AIRPORT, SD, United States (KABR) 45-27N 098-25W 400M
Feb 21, 2019 - 06:53 AM EST / 2019.02.21 1153 UTC
Wind: from the NNW (330 degrees) at 9 MPH (8 KT):0
Visibility: 10 mile(s):0
Sky conditions: overcast
Temperature: 8.1 F (-13.3 C)
Windchill: -5 F (-21 C):2
Dew Point: 3.0 F (-16.1 C)
Relative Humidity: 79%
Pressure (altimeter): 30 in. Hg (1015 hPa)
Pressure tendency: 0.08 inches (2.6 hPa) higher than three hours ago
ob: KABR 211153Z AUTO 33008KT 10SM OVC035 M13/M16 A3000 RMK AO2 SLP186 70014 T11331161 11133 21183 53026
cycle: 12

Station Type Date Time Source
KABR TAF 2019/02/21 12:27 UTC NOAA

TAF KABR 211124Z 2112/2212 29008KT 6SM -SN OVC035
FM212000 24005KT P6SM SCT080
FM212200 VRB03KT P6SM BKN100
FM220600 VRB03KT P6SM OVC050
FM221000 00000KT P6SM BKN030


Example: see airport list